Time;durP1;ratioP1;P1;durP2;ratioP2;P2;SDS_P1;SDS_P2;PMS_P1;PMS_P2;Temp;Humidity;BMP_temperature;BMP_pressure;BME280_temperature;BME280_humidity;BME280_pressure;Samples;Min_cycle;Max_cycle;Signal;HPM_P1;HPM_P2
2022/04/08 00:02:13;;;;;;;;;1.00;1.00;;;;;12.05;46.61;100039.06;4997281;28;45564;-68
2022/04/08 00:04:39;;;;;;;;;6.33;6.00;;;;;11.64;46.27;99966.38;4998081;28;45735;-68
2022/04/08 00:07:04;;;;;;;;;2.67;1.33;;;;;11.79;46.15;99992.16;4998388;28;45563;-69
2022/04/08 00:09:30;;;;;;;;;10.00;9.33;;;;;12.08;46.29;100033.38;5014437;28;45931;-68
2022/04/08 00:11:55;;;;;;;;;2.00;0.67;;;;;12.10;46.06;100034.03;5018281;28;45252;-69
2022/04/08 00:14:21;;;;;;;;;1.00;0.00;;;;;12.07;46.79;100026.41;5017911;28;45992;-70
2022/04/08 00:16:47;;;;;;;;;3.00;2.00;;;;;12.14;46.17;100030.84;5016413;28;46136;-68
2022/04/08 00:19:12;;;;;;;;;0.00;0.00;;;;;11.47;45.82;99917.66;5016764;28;45383;-71
2022/04/08 00:21:38;;;;;;;;;1.33;0.67;;;;;12.23;46.06;100023.69;5016847;28;45333;-68
2022/04/08 00:24:04;;;;;;;;;1.00;1.00;;;;;12.20;46.00;100008.00;5017556;28;45460;-67
2022/04/08 00:26:29;;;;;;;;;2.00;1.00;;;;;12.27;46.27;100005.50;5017827;28;45365;-67
2022/04/08 00:28:55;;;;;;;;;0.00;0.00;;;;;11.86;46.30;99955.03;5017975;28;45226;-68
2022/04/08 00:31:20;;;;;;;;;2.00;2.00;;;;;12.35;46.00;100022.28;5018156;28;45404;-68
2022/04/08 00:33:46;;;;;;;;;1.00;1.00;;;;;11.80;46.45;99929.91;4999949;28;48234;-68
2022/04/08 00:36:11;;;;;;;;;2.33;0.00;;;;;12.39;46.89;100020.91;5017808;28;45227;-69
2022/04/08 00:38:37;;;;;;;;;0.00;0.00;;;;;12.40;46.31;100014.59;5017538;28;45414;-69
2022/04/08 00:41:02;;;;;;;;;341.25;294.50;;;;;12.43;46.36;100016.94;5017723;28;45487;-68
2022/04/08 00:43:36;;;;;;;;;1.33;1.33;;;;;12.46;46.34;100016.59;5017848;28;45752;-70
2022/04/08 00:46:06;;;;;;;;;1.00;1.00;;;;;12.49;46.45;100005.56;5016980;28;45699;-68
2022/04/08 00:48:32;;;;;;;;;1.00;1.00;;;;;12.04;46.49;99925.50;5002661;28;45455;-69
2022/04/08 00:51:00;;;;;;;;;4.00;1.33;;;;;12.56;46.81;100004.84;5016135;28;45502;-67
2022/04/08 00:53:27;;;;;;;;;5.00;1.00;;;;;11.55;46.46;99837.78;5017130;28;46291;-68
2022/04/08 00:55:52;;;;;;;;;1.00;1.00;;;;;12.57;46.80;100004.69;5016051;28;45215;-67
2022/04/08 00:58:18;;;;;;;;;3.00;0.33;;;;;12.58;46.86;100008.19;5016096;28;45423;-68
2022/04/08 01:00:50;;;;;;;;;1.00;1.00;;;;;12.60;46.45;100006.16;5017589;28;45324;-69
2022/04/08 01:03:16;;;;;;;;;2.33;1.00;;;;;12.54;46.36;99982.88;5017166;28;45989;-67
2022/04/08 01:05:42;;;;;;;;;0.00;0.00;;;;;12.25;47.12;99938.22;5017192;28;45535;-68
2022/04/08 01:08:12;;;;;;;;;1.67;0.00;;;;;12.57;46.75;99988.69;5015287;28;45318;-68
2022/04/08 01:10:41;;;;;;;;;0.00;0.00;;;;;12.39;46.84;99945.47;5017380;28;45218;-69
2022/04/08 01:13:07;;;;;;;;;12.67;11.67;;;;;12.65;47.10;99990.50;5017069;28;46324;-68
2022/04/08 01:15:32;;;;;;;;;50.33;39.67;;;;;12.60;47.06;99982.16;5015605;28;45467;-68
2022/04/08 01:18:00;;;;;;;;;21.33;19.00;;;;;12.57;46.92;99975.34;5012614;28;45494;-69
2022/04/08 01:20:26;;;;;;;;;2.00;1.00;;;;;12.62;47.05;99981.00;4997564;28;45325;-67
2022/04/08 01:22:52;;;;;;;;;0.33;0.33;;;;;12.59;46.50;99975.16;5005179;28;46241;-68
2022/04/08 01:25:17;;;;;;;;;0.00;0.00;;;;;12.48;46.61;99966.56;5016816;28;45619;-67
2022/04/08 01:27:43;;;;;;;;;0.00;0.00;;;;;12.51;47.02;99965.41;5015721;28;45611;-70
2022/04/08 01:30:12;;;;;;;;;0.00;0.00;;;;;12.59;46.70;99972.50;5017423;28;45626;-69
2022/04/08 01:32:38;;;;;;;;;1.00;0.00;;;;;12.50;47.12;99966.41;5015639;28;48868;-68
2022/04/08 01:35:05;;;;;;;;;0.67;0.00;;;;;12.47;46.79;99970.25;5016380;28;45297;-67
2022/04/08 01:37:30;;;;;;;;;2.00;0.00;;;;;12.39;46.44;99954.28;5017199;28;45458;-67
2022/04/08 01:39:56;;;;;;;;;1.00;1.00;;;;;12.42;47.07;99959.28;5016785;28;45344;-68
2022/04/08 01:42:24;;;;;;;;;0.00;0.00;;;;;12.39;47.16;99954.28;5015624;28;47571;-68
2022/04/08 01:44:52;;;;;;;;;1.00;1.00;;;;;12.46;46.86;99963.25;5015675;28;45555;-68
2022/04/08 01:47:18;;;;;;;;;28.00;24.33;;;;;12.45;47.36;99966.09;5016371;28;45564;-68
2022/04/08 01:49:59;;;;;;;;;7.67;7.00;;;;;12.47;47.33;99956.91;5014877;28;45566;-69
2022/04/08 01:52:24;;;;;;;;;58.33;46.33;;;;;12.41;47.30;99949.63;5016560;28;45972;-70
2022/04/08 01:54:50;;;;;;;;;11.33;9.00;;;;;12.41;47.42;99964.78;5016344;28;45270;-70
2022/04/08 01:57:18;;;;;;;;;1.00;1.00;;;;;12.36;47.74;99932.47;5019218;28;45524;-67
2022/04/08 01:59:44;;;;;;;;;1.00;1.00;;;;;12.47;47.37;99964.09;5018928;28;45441;-68
2022/04/08 02:02:09;;;;;;;;;0.67;0.33;;;;;12.42;47.24;99947.81;5019973;28;45656;-69
2022/04/08 02:04:35;;;;;;;;;0.00;0.00;;;;;12.38;47.32;99949.97;5018698;28;45306;-67
2022/04/08 02:07:02;;;;;;;;;0.33;0.00;;;;;12.39;47.65;99946.28;5000229;28;45494;-69
2022/04/08 02:09:27;;;;;;;;;2.33;0.00;;;;;12.36;47.71;99951.97;5000094;28;45324;-68
2022/04/08 02:11:53;;;;;;;;;0.00;0.00;;;;;12.31;47.70;99954.34;4999865;28;45759;-68
2022/04/08 02:14:18;;;;;;;;;2.33;1.00;;;;;12.28;48.02;99949.38;4998558;28;45498;-69
2022/04/08 02:16:44;;;;;;;;;1.00;1.00;;;;;12.27;48.06;99953.03;5003895;28;45415;-67
2022/04/08 02:19:09;;;;;;;;;0.00;0.00;;;;;12.25;47.95;99952.38;5020175;28;45570;-68
2022/04/08 02:21:35;;;;;;;;;0.00;0.00;;;;;12.16;48.05;99932.09;5019428;28;45213;-68
2022/04/08 02:24:00;;;;;;;;;3.00;1.00;;;;;12.28;48.12;99940.53;5019652;28;45169;-70
2022/04/08 02:26:28;;;;;;;;;1.33;1.00;;;;;11.81;48.11;99859.69;5020255;28;45231;-68
2022/04/08 02:28:53;;;;;;;;;1.33;1.00;;;;;12.18;47.80;99919.41;5020403;28;45341;-68
2022/04/08 02:31:18;;;;;;;;;2.33;1.00;;;;;12.41;47.77;99949.63;5019484;28;45481;-69
2022/04/08 02:33:44;;;;;;;;;0.00;0.00;;;;;12.34;47.91;99927.34;5018551;28;45675;-66
2022/04/08 02:36:09;;;;;;;;;1.00;1.00;;;;;12.38;47.96;99928.63;5019469;28;45253;-67
2022/04/08 02:38:35;;;;;;;;;2.00;0.33;;;;;12.40;47.90;99926.63;5019997;28;45241;-66
2022/04/08 02:41:00;;;;;;;;;2.00;1.00;;;;;12.27;48.36;99906.91;5017862;28;46772;-67
2022/04/08 02:43:25;;;;;;;;;1.67;1.33;;;;;12.35;48.06;99915.66;5019408;28;45523;-70
2022/04/08 02:45:51;;;;;;;;;1.00;1.00;;;;;12.39;48.33;99929.47;5017941;28;45325;-70
2022/04/08 02:48:18;;;;;;;;;0.00;0.00;;;;;12.42;48.54;99921.97;5019578;28;45293;-68
2022/04/08 02:50:44;;;;;;;;;1.00;0.00;;;;;12.34;48.53;99906.00;5018869;28;46593;-67
2022/04/08 02:53:09;;;;;;;;;1.33;1.00;;;;;12.36;48.53;99904.00;5017910;28;45426;-69
2022/04/08 02:55:35;;;;;;;;;0.67;0.33;;;;;12.47;48.20;99913.44;5019485;28;45241;-68
2022/04/08 02:58:02;;;;;;;;;2.67;2.67;;;;;12.31;49.01;99893.03;5019367;28;45369;-70
2022/04/08 03:00:28;;;;;;;;;0.00;0.00;;;;;12.41;48.57;99912.31;5019092;28;45472;-68
2022/04/08 03:02:53;;;;;;;;;1.67;0.00;;;;;12.29;49.01;99892.38;5019021;28;45458;-72
2022/04/08 03:05:19;;;;;;;;;2.67;1.00;;;;;12.27;49.22;99894.41;5017360;28;45415;-68
2022/04/08 03:07:45;;;;;;;;;1.00;0.00;;;;;12.24;49.52;99900.09;5018895;28;45477;-69
2022/04/08 03:10:11;;;;;;;;;1.67;1.00;;;;;12.20;49.47;99888.09;5019105;28;45411;-67
2022/04/08 03:12:36;;;;;;;;;0.00;0.00;;;;;12.18;49.84;99890.94;5019701;28;45511;-67
2022/04/08 03:15:03;;;;;;;;;3.00;0.67;;;;;12.26;49.63;99898.06;5018998;28;45284;-68
2022/04/08 03:17:29;;;;;;;;;1.00;1.00;;;;;11.93;49.86;99848.63;5018881;28;45265;-70
2022/04/08 03:19:56;;;;;;;;;0.33;0.33;;;;;11.83;49.47;99828.38;5018576;28;46633;-68
2022/04/08 03:22:21;;;;;;;;;0.00;0.00;;;;;12.24;50.37;99889.44;5017444;28;45297;-67
2022/04/08 03:24:47;;;;;;;;;0.00;0.00;;;;;12.27;50.70;99888.25;5019222;28;45703;-70
2022/04/08 03:27:13;;;;;;;;;4.00;1.00;;;;;12.21;50.65;99884.41;5019282;28;45405;-68
2022/04/08 03:29:39;;;;;;;;;1.67;0.33;;;;;12.24;51.52;99883.25;5018621;28;49143;-70
2022/04/08 03:32:05;;;;;;;;;2.00;0.67;;;;;12.19;51.79;99878.44;5018694;28;45337;-69
2022/04/08 03:34:31;;;;;;;;;0.33;0.33;;;;;12.24;52.13;99877.94;5018660;28;45310;-69
2022/04/08 03:36:56;;;;;;;;;2.00;2.00;;;;;12.13;53.35;99871.16;5018801;28;45491;-68
2022/04/08 03:39:22;;;;;;;;;1.00;1.00;;;;;12.14;53.36;99878.13;5018481;28;45659;-69
2022/04/08 03:41:48;;;;;;;;;5.00;2.00;;;;;11.88;53.40;99831.34;5016958;28;45776;-68
2022/04/08 03:44:13;;;;;;;;;0.00;0.00;;;;;11.86;53.82;99822.69;5018817;28;45164;-70
2022/04/08 03:46:41;;;;;;;;;2.67;1.67;;;;;11.84;54.43;99814.06;5018125;28;45349;-69
2022/04/08 03:49:14;;;;;;;;;2.00;2.00;;;;;12.12;54.81;99869.50;5017020;28;47728;-68
2022/04/08 03:51:40;;;;;;;;;2.33;1.00;;;;;11.82;56.26;99813.41;5017025;28;45516;-69
2022/04/08 03:54:07;;;;;;;;;0.00;0.00;;;;;11.84;56.10;99824.72;5017122;28;45535;-69
2022/04/08 03:56:33;;;;;;;;;0.67;0.00;;;;;11.86;56.74;99814.72;5018689;28;45350;-68
2022/04/08 03:58:58;;;;;;;;;2.00;2.00;;;;;12.05;56.98;99836.59;5016388;28;47272;-69
2022/04/08 04:01:24;;;;;;;;;0.67;0.67;;;;;12.03;57.73;99833.25;5018370;28;45475;-69
2022/04/08 04:03:49;;;;;;;;;0.00;0.00;;;;;11.89;56.98;99800.19;5018379;28;45489;-68
2022/04/08 04:06:15;;;;;;;;;0.33;0.33;;;;;12.01;57.39;99822.75;5018590;28;45427;-68
2022/04/08 04:08:40;;;;;;;;;3.33;1.67;;;;;11.94;57.77;99805.00;5016579;28;47489;-69
2022/04/08 04:11:06;;;;;;;;;4.00;1.33;;;;;11.98;58.03;99814.28;5017425;28;45626;-67
2022/04/08 04:13:31;;;;;;;;;3.00;1.00;;;;;11.88;58.28;99799.38;5017848;28;45399;-67
2022/04/08 04:15:56;;;;;;;;;2.00;2.00;;;;;11.94;58.18;99802.34;5018114;28;45341;-67
2022/04/08 04:18:22;;;;;;;;;1.00;1.00;;;;;11.95;57.92;99793.34;5017553;28;45951;-69
2022/04/08 04:20:47;;;;;;;;;3.00;1.67;;;;;11.97;58.36;99786.00;5016253;28;45406;-68
2022/04/08 04:23:12;;;;;;;;;1.00;1.00;;;;;11.97;58.21;99780.66;5018005;28;45373;-69
2022/04/08 04:25:38;;;;;;;;;2.00;1.00;;;;;12.02;57.84;99775.66;5018391;28;45501;-67
2022/04/08 04:28:04;;;;;;;;;1.33;0.33;;;;;12.04;57.94;99776.31;5017702;28;45622;-70
2022/04/08 04:30:30;;;;;;;;;1.00;1.00;;;;;12.06;58.46;99775.13;5016294;28;45450;-69
2022/04/08 04:32:56;;;;;;;;;1.00;1.00;;;;;12.07;58.64;99767.97;5017538;28;45371;-68
2022/04/08 04:35:22;;;;;;;;;1.00;1.00;;;;;12.06;58.25;99758.31;5016419;28;45311;-68
2022/04/08 04:37:48;;;;;;;;;0.00;0.00;;;;;12.01;57.81;99755.31;5017096;28;46511;-69
2022/04/08 04:40:13;;;;;;;;;0.00;0.00;;;;;11.84;58.61;99714.69;5017005;28;45373;-69
2022/04/08 04:42:39;;;;;;;;;1.00;1.00;;;;;12.05;58.28;99743.34;5017654;28;45332;-69
2022/04/08 04:45:05;;;;;;;;;3.67;2.00;;;;;12.04;57.97;99733.69;5017959;28;45381;-69
2022/04/08 04:47:30;;;;;;;;;2.00;1.00;;;;;12.11;58.71;99735.44;5016582;28;47536;-70
2022/04/08 04:49:55;;;;;;;;;2.00;1.00;;;;;11.99;58.29;99720.88;5016788;28;45481;-68
2022/04/08 04:52:21;;;;;;;;;2.67;2.00;;;;;12.11;58.19;99726.63;5017259;28;45401;-68
2022/04/08 04:54:46;;;;;;;;;2.00;1.00;;;;;11.89;57.85;99683.00;5017164;28;45450;-67
2022/04/08 04:57:12;;;;;;;;;1.67;1.67;;;;;12.12;58.02;99704.31;5017123;28;46445;-70
2022/04/08 04:59:37;;;;;;;;;2.33;1.00;;;;;12.08;58.54;99697.69;5017188;28;45232;-69
2022/04/08 05:02:03;;;;;;;;;2.00;2.00;;;;;12.12;58.27;99696.31;5015781;28;45392;-70
2022/04/08 05:04:30;;;;;;;;;1.33;1.33;;;;;12.08;58.18;99684.38;5016951;28;45186;-71
2022/04/08 05:06:55;;;;;;;;;2.00;0.33;;;;;12.08;58.38;99681.69;5017032;28;46039;-68
2022/04/08 05:09:20;;;;;;;;;1.00;1.00;;;;;11.69;57.98;99612.56;5017372;28;45321;-67
2022/04/08 05:11:46;;;;;;;;;3.00;2.00;;;;;12.02;57.71;99651.28;5016450;28;45548;-70
2022/04/08 05:14:11;;;;;;;;;1.00;1.00;;;;;12.17;58.85;99660.13;5016626;28;45534;-69
2022/04/08 05:16:37;;;;;;;;;3.00;1.00;;;;;12.14;58.50;99649.81;5016381;28;45694;-68
2022/04/08 05:19:02;;;;;;;;;0.33;0.33;;;;;12.17;58.30;99648.63;5016592;28;45163;-67
2022/04/08 05:21:31;;;;;;;;;2.00;1.00;;;;;12.05;58.57;99631.44;5012289;28;45274;-72
2022/04/08 05:23:56;;;;;;;;;0.33;0.33;;;;;12.03;57.99;99631.63;4997208;28;45305;-69
2022/04/08 05:26:22;;;;;;;;;2.67;2.67;;;;;12.08;58.61;99641.75;5007692;28;45510;-69
2022/04/08 05:28:47;;;;;;;;;2.00;2.00;;;;;12.04;58.68;99632.47;5014492;28;45251;-72
2022/04/08 05:31:13;;;;;;;;;2.00;2.00;;;;;12.08;59.43;99633.75;5018768;28;45581;-71
2022/04/08 05:33:39;;;;;;;;;3.00;2.00;;;;;12.08;59.02;99628.41;5020754;28;45510;-68
2022/04/08 05:36:04;;;;;;;;;1.00;1.00;;;;;11.60;58.56;99534.59;5019781;28;46600;-68
2022/04/08 05:38:29;;;;;;;;;4.33;2.67;;;;;12.00;58.76;99599.16;5019861;28;45511;-70
2022/04/08 05:40:55;;;;;;;;;5.33;3.00;;;;;11.89;59.16;99584.47;5020262;28;45432;-66
2022/04/08 05:43:20;;;;;;;;;1.67;1.67;;;;;12.09;59.18;99619.41;5020330;28;45230;-69
2022/04/08 05:45:46;;;;;;;;;3.00;1.00;;;;;12.06;58.73;99603.78;5017727;28;47635;-69
2022/04/08 05:48:11;;;;;;;;;2.00;2.00;;;;;11.99;58.90;99593.03;5019861;28;45376;-71
2022/04/08 05:50:36;;;;;;;;;2.67;2.33;;;;;12.00;59.45;99593.84;5019520;28;45962;-67
2022/04/08 05:53:03;;;;;;;;;2.00;2.00;;;;;11.85;58.86;99584.00;5019704;28;45423;-70
2022/04/08 05:55:28;;;;;;;;;3.00;1.33;;;;;11.85;58.59;99589.34;5019400;28;45897;-71
2022/04/08 05:57:55;;;;;;;;;3.67;2.00;;;;;11.80;58.85;99577.53;5019555;28;45324;-68
2022/04/08 06:00:21;;;;;;;;;1.00;1.00;;;;;11.80;59.06;99567.72;5020175;28;45346;-67
2022/04/08 06:02:47;;;;;;;;;2.33;1.00;;;;;11.85;58.76;99560.03;5035177;28;45397;-69
2022/04/08 06:05:18;;;;;;;;;0.67;0.67;;;;;11.86;58.44;99558.22;5019849;28;46756;-68
2022/04/08 06:07:54;;;;;;;;;2.00;1.00;;;;;11.89;57.81;99555.19;5019240;28;45431;-71
2022/04/08 06:10:25;;;;;;;;;0.67;0.67;;;;;11.84;59.04;99553.06;5019993;28;45327;-70
2022/04/08 06:12:53;;;;;;;;;2.00;2.00;;;;;11.90;59.31;99551.50;5019649;28;45384;-68
2022/04/08 06:15:21;;;;;;;;;8.00;3.00;;;;;11.88;59.92;99535.72;5019001;28;46531;-69
2022/04/08 06:17:47;;;;;;;;;1.00;1.00;;;;;11.92;58.73;99533.50;5020285;28;45375;-70
2022/04/08 06:20:16;;;;;;;;;1.33;1.33;;;;;11.91;58.34;99515.03;5019924;28;45447;-76
2022/04/08 06:22:42;;;;;;;;;2.00;2.00;;;;;11.47;58.21;99458.03;5018062;28;45244;-79
2022/04/08 06:25:10;;;;;;;;;2.33;1.00;;;;;11.76;58.66;99499.00;5017968;28;46792;-70
2022/04/08 06:27:35;;;;;;;;;4.67;2.00;;;;;11.69;59.11;99496.25;5019309;28;45446;-68
2022/04/08 06:30:01;;;;;;;;;2.00;2.00;;;;;11.58;59.01;99480.72;5019387;28;45446;-69
2022/04/08 06:32:27;;;;;;;;;2.00;2.00;;;;;11.61;57.92;99485.66;5018079;28;45469;-69
2022/04/08 06:34:52;;;;;;;;;5.67;2.00;;;;;11.51;59.77;99474.47;5017737;28;47531;-69
2022/04/08 06:37:18;;;;;;;;;3.00;2.00;;;;;11.61;59.76;99476.84;5018524;28;45446;-69
2022/04/08 06:39:45;;;;;;;;;4.00;3.00;;;;;11.52;59.29;99468.13;5017860;28;45542;-70
2022/04/08 06:42:11;;;;;;;;;5.33;2.00;;;;;11.32;58.57;99467.81;5017597;28;45588;-70
2022/04/08 06:44:36;;;;;;;;;2.67;2.00;;;;;11.20;59.68;99458.59;5019181;28;45553;-69
2022/04/08 06:47:02;;;;;;;;;4.00;3.00;;;;;11.33;60.81;99484.63;5016837;28;45360;-69
2022/04/08 06:49:27;;;;;;;;;3.67;3.00;;;;;11.30;61.02;99477.00;5013679;28;45369;-70
2022/04/08 06:51:58;;;;;;;;;2.00;2.00;;;;;11.20;61.31;99459.44;5016517;28;45547;-71
2022/04/08 06:54:23;;;;;;;;;4.67;3.33;;;;;11.27;60.90;99465.72;5013365;28;47771;-71
2022/04/08 06:57:07;;;;;;;;;3.67;3.33;;;;;11.22;60.83;99456.63;5026541;28;45601;-72
2022/04/08 06:59:45;;;;;;;;;1.67;1.67;;;;;11.31;60.17;99474.16;5011877;28;45826;-70
2022/04/08 07:02:22;;;;;;;;;3.00;2.00;;;;;11.30;60.54;99458.38;5014557;28;45567;-71
2022/04/08 07:05:17;;;;;;;;;4.00;4.00;;;;;11.23;60.95;99456.44;5011487;28;47218;-74
2022/04/08 07:08:14;;;;;;;;;3.00;3.00;;;;;11.35;61.56;99471.94;5009139;28;45718;-70
2022/04/08 07:11:53;;;;;;;;;;;;;;;;;;;;;
2022/04/08 07:13:50;;;;;;;;;2.00;2.00;;;;;11.37;59.63;99480.59;5000050;28;46485;-69
2022/04/08 07:16:16;;;;;;;;;2.33;1.00;;;;;11.33;58.31;99471.31;5012096;28;46214;-70
2022/04/08 07:18:41;;;;;;;;;2.67;1.67;;;;;11.24;59.27;99454.59;5011615;28;45467;-70
2022/04/08 07:21:07;;;;;;;;;4.33;3.00;;;;;10.95;59.63;99413.59;5012419;28;46158;-69
2022/04/08 07:23:32;;;;;;;;;2.67;2.00;;;;;11.03;59.65;99426.03;5011006;28;45598;-69
2022/04/08 07:25:58;;;;;;;;;5.33;2.67;;;;;11.26;60.01;99447.25;5016590;28;45303;-71
2022/04/08 07:28:23;;;;;;;;;7.33;4.33;;;;;11.13;60.90;99402.66;5015282;28;45483;-70
2022/04/08 07:30:50;;;;;;;;;4.00;3.33;;;;;11.15;61.67;99397.97;5018038;28;45552;-69
2022/04/08 07:33:16;;;;;;;;;3.00;2.00;;;;;11.25;60.30;99409.19;5016533;28;45582;-72
2022/04/08 07:35:41;;;;;;;;;2.00;2.00;;;;;11.12;60.60;99408.97;5017095;28;46188;-71
2022/04/08 07:38:07;;;;;;;;;4.00;2.00;;;;;11.06;60.41;99399.06;5008988;28;45337;-71
2022/04/08 07:40:33;;;;;;;;;4.33;2.67;;;;;11.01;62.29;99390.78;5008293;28;45445;-70
2022/04/08 07:42:58;;;;;;;;;3.00;3.00;;;;;10.84;63.56;99394.59;5012707;28;45363;-68
2022/04/08 07:45:27;;;;;;;;;2.67;2.00;;;;;10.58;64.25;99363.03;5013908;28;45478;-70
2022/04/08 07:48:05;;;;;;;;;4.33;3.00;;;;;10.53;62.59;99345.00;5014897;28;45462;-68
2022/04/08 07:50:32;;;;;;;;;3.67;2.00;;;;;10.52;63.14;99338.03;5013833;28;45527;-68
2022/04/08 07:52:57;;;;;;;;;2.00;2.00;;;;;10.65;63.35;99346.22;5016607;28;45435;-69
2022/04/08 07:55:24;;;;;;;;;3.33;2.00;;;;;10.65;63.10;99353.38;5015265;28;48625;-70
2022/04/08 07:57:51;;;;;;;;;3.33;2.67;;;;;10.68;63.66;99355.69;5017479;28;45242;-72
2022/04/08 08:00:19;;;;;;;;;4.00;4.00;;;;;10.65;64.56;99354.22;5016968;28;45446;-69
2022/04/08 08:02:45;;;;;;;;;4.67;3.33;;;;;10.48;64.67;99336.72;5015985;28;45654;-70
2022/04/08 08:05:11;;;;;;;;;4.00;3.00;;;;;10.36;65.76;99331.00;5015129;28;47427;-69
2022/04/08 08:07:53;;;;;;;;;4.00;4.00;;;;;10.50;65.13;99342.69;5017232;28;45337;-68
2022/04/08 08:10:55;;;;;;;;;4.67;3.33;;;;;10.51;64.63;99325.75;5018235;28;45564;-70
2022/04/08 08:13:19;;;;;;;;;1.33;1.33;;;;;10.54;65.16;99298.81;5015464;28;45451;-69
2022/04/08 08:15:51;;;;;;;;;3.67;3.00;;;;;10.53;65.13;99273.25;5017191;28;46485;-69
2022/04/08 08:18:25;;;;;;;;;2.00;2.00;;;;;10.55;65.35;99287.16;5017419;28;45452;-72
2022/04/08 08:20:51;;;;;;;;;3.00;3.00;;;;;10.33;65.75;99249.00;5014961;28;45482;-68
2022/04/08 08:23:16;;;;;;;;;2.67;1.67;;;;;10.36;64.02;99267.22;5016200;28;45498;-66
2022/04/08 08:25:44;;;;;;;;;4.00;2.00;;;;;10.41;63.04;99287.97;5016607;28;45436;-68
2022/04/08 08:28:09;;;;;;;;;1.00;1.00;;;;;9.86;65.60;99238.53;5015550;28;45445;-73
2022/04/08 08:30:36;;;;;;;;;1.33;1.33;;;;;9.80;65.85;99241.06;5016611;28;45241;-70
2022/04/08 08:33:04;;;;;;;;;3.67;3.67;;;;;9.61;67.31;99234.38;5014405;28;45463;-69
2022/04/08 08:35:30;;;;;;;;;1.67;1.67;;;;;9.65;67.51;99262.22;5013601;28;48026;-68
2022/04/08 08:37:56;;;;;;;;;2.67;1.33;;;;;9.58;66.21;99263.91;5013130;28;46077;-67
2022/04/08 08:40:23;;;;;;;;;4.00;3.00;;;;;9.54;67.21;99247.50;5009515;28;45669;-70
2022/04/08 08:42:49;;;;;;;;;3.00;3.00;;;;;9.33;67.53;99210.97;5010070;28;45847;-76
2022/04/08 08:45:15;;;;;;;;;2.00;2.00;;;;;9.60;67.35;99246.81;5011420;28;46675;-69
2022/04/08 08:47:46;;;;;;;;;0.33;0.33;;;;;9.55;69.69;99251.00;5010580;28;45897;-75
2022/04/08 08:50:12;;;;;;;;;2.33;2.00;;;;;9.55;67.23;99243.03;5011698;28;45574;-73
2022/04/08 08:52:40;;;;;;;;;1.00;1.00;;;;;9.34;66.42;99199.38;5010581;28;45442;-71
2022/04/08 08:55:07;;;;;;;;;4.00;1.67;;;;;9.24;68.35;99182.03;5009791;28;47209;-71
2022/04/08 08:57:32;;;;;;;;;4.00;3.00;;;;;9.45;67.81;99216.72;5010021;28;45543;-70
2022/04/08 09:00:13;;;;;;;;;1.67;1.00;;;;;9.56;67.57;99223.47;5008552;28;45311;-69
2022/04/08 09:02:40;;;;;;;;;1.67;0.67;;;;;9.47;66.94;99188.19;5008541;28;45535;-72
2022/04/08 09:05:16;;;;;;;;;2.00;2.00;;;;;9.27;67.45;99155.16;5010660;28;46407;-69
2022/04/08 09:08:13;;;;;;;;;;;;;;;;;;;;;
2022/04/08 09:10:43;;;;;;;;;2.67;2.67;;;;;9.61;68.19;99199.88;5010093;28;68196;-69
2022/04/08 09:13:09;;;;;;;;;1.00;1.00;;;;;9.57;67.12;99188.78;5009533;28;45649;-67
2022/04/08 09:15:39;;;;;;;;;4.00;3.00;;;;;9.33;69.59;99165.06;5009474;28;48037;-71
2022/04/08 09:18:07;;;;;;;;;3.00;1.00;;;;;9.18;71.20;99146.41;5009552;28;45643;-69
2022/04/08 09:20:41;;;;;;;;;2.00;2.00;;;;;9.29;70.50;99147.84;5011736;28;45538;-69
2022/04/08 09:23:08;;;;;;;;;1.67;1.67;;;;;9.31;69.67;99133.41;5025556;28;45560;-67
2022/04/08 09:25:34;;;;;;;;;3.00;3.00;;;;;9.45;69.59;99132.69;5010106;28;46066;-68
2022/04/08 09:28:18;;;;;;;;;2.00;2.00;;;;;9.33;69.41;99128.75;5009543;28;46938;-69
2022/04/08 09:30:58;;;;;;;;;2.00;1.67;;;;;9.37;71.21;99123.94;5010282;28;45498;-68
2022/04/08 09:33:26;;;;;;;;;1.33;1.33;;;;;9.45;70.25;99135.31;5008805;28;45539;-67
2022/04/08 09:35:54;;;;;;;;;3.00;3.00;;;;;9.20;71.87;99117.91;5004544;28;48932;-70
2022/04/08 09:38:22;;;;;;;;;3.00;3.00;;;;;9.18;71.95;99134.97;5010560;28;45508;-75
2022/04/08 09:40:48;;;;;;;;;2.00;2.00;;;;;9.05;72.07;99140.88;5009606;28;45762;-70
2022/04/08 09:43:14;;;;;;;;;3.67;3.00;;;;;8.73;74.44;99132.03;5010746;28;45569;-72
2022/04/08 09:45:40;;;;;;;;;3.67;2.67;;;;;8.79;74.79;99147.25;5011847;28;46163;-78
2022/04/08 09:48:07;;;;;;;;;4.00;4.00;;;;;8.97;73.46;99164.75;5012677;28;45600;-71
2022/04/08 09:50:34;;;;;;;;;2.33;2.33;;;;;8.66;74.82;99176.13;5010786;28;45530;-69
2022/04/08 09:53:19;;;;;;;;;4.00;4.00;;;;;8.37;76.06;99175.84;5007680;28;45796;-78
2022/04/08 09:55:45;;;;;;;;;2.33;2.33;;;;;8.03;75.89;99134.50;5008572;28;47933;-71
2022/04/08 09:58:14;;;;;;;;;1.33;1.33;;;;;8.16;76.66;99123.41;5009881;28;45505;-70
2022/04/08 10:00:43;;;;;;;;;2.00;2.00;;;;;8.33;76.55;99097.72;5009128;28;45368;-69
2022/04/08 10:03:11;;;;;;;;;3.00;3.00;;;;;8.41;74.44;99082.69;5009554;28;45547;-68
2022/04/08 10:05:37;;;;;;;;;3.00;3.00;;;;;8.97;73.38;99154.13;5013070;28;46045;-67
2022/04/08 10:08:05;;;;;;;;;3.00;3.00;;;;;9.04;72.56;99142.69;5015358;28;45337;-67
2022/04/08 10:10:40;;;;;;;;;2.00;2.00;;;;;8.68;71.85;99123.78;4995838;28;45278;-70
2022/04/08 10:13:17;;;;;;;;;3.00;3.00;;;;;8.63;73.01;99179.13;4996287;28;45539;-68
2022/04/08 10:15:58;;;;;;;;;3.00;3.00;;;;;8.75;73.40;99175.09;5014041;28;46528;-69
2022/04/08 10:18:42;;;;;;;;;4.00;2.33;;;;;8.50;73.74;99136.44;5017779;28;45345;-69
2022/04/08 10:21:10;;;;;;;;;2.00;2.00;;;;;8.43;73.57;99127.53;5014889;28;45417;-70
2022/04/08 10:23:49;;;;;;;;;3.00;2.00;;;;;8.29;76.11;99157.31;5019680;28;45345;-68
2022/04/08 10:26:21;;;;;;;;;3.00;3.00;;;;;8.33;77.95;99121.56;4997576;28;45990;-68
2022/04/08 10:28:47;;;;;;;;;2.00;2.00;;;;;8.50;75.97;99126.66;5013883;28;45617;-69
2022/04/08 10:31:18;;;;;;;;;1.67;1.00;;;;;7.93;75.54;99054.47;5018220;28;45451;-70
2022/04/08 10:33:57;;;;;;;;;2.00;1.67;;;;;8.33;76.16;99118.91;4998314;28;45572;-70
2022/04/08 10:36:42;;;;;;;;;3.33;2.00;;;;;8.25;75.11;99074.75;4998790;28;46501;-69
2022/04/08 10:39:14;;;;;;;;;3.00;3.00;;;;;8.66;75.31;99115.19;5001841;28;45363;-68
2022/04/08 10:41:57;;;;;;;;;5.00;4.00;;;;;8.12;72.79;98963.28;5019308;28;45558;-70
2022/04/08 10:44:34;;;;;;;;;4.00;4.00;;;;;8.55;71.33;99017.56;5017258;28;45587;-70
2022/04/08 10:47:03;;;;;;;;;5.00;4.00;;;;;8.57;69.85;99020.84;5018810;28;45421;-69
2022/04/08 10:49:30;;;;;;;;;2.67;2.67;;;;;8.72;70.79;99008.53;5018078;28;45515;-68
2022/04/08 10:51:56;;;;;;;;;4.00;4.00;;;;;8.66;72.21;98972.13;5012968;28;45498;-70
2022/04/08 10:54:33;;;;;;;;;3.33;3.33;;;;;9.17;71.99;99024.63;5007618;28;45505;-71
2022/04/08 10:56:59;;;;;;;;;2.67;2.67;;;;;9.28;71.78;99034.84;5015206;28;46431;-70
2022/04/08 10:59:26;;;;;;;;;2.67;2.67;;;;;9.07;70.83;98970.03;5017678;28;45574;-66
2022/04/08 11:01:58;;;;;;;;;4.00;2.33;;;;;9.58;70.87;99025.13;5017346;28;45816;-67
2022/04/08 11:04:27;;;;;;;;;3.67;3.67;;;;;9.60;70.50;99054.94;5017115;28;45597;-68
2022/04/08 11:06:52;;;;;;;;;5.00;4.00;;;;;9.54;70.30;99060.97;5016801;28;47463;-67
2022/04/08 11:09:19;;;;;;;;;4.67;2.33;;;;;9.45;69.85;99021.28;5017761;28;45507;-67
2022/04/08 11:11:54;;;;;;;;;4.00;3.00;;;;;8.98;70.82;98980.84;5015590;28;45254;-68
2022/04/08 11:14:22;;;;;;;;;7.67;6.00;;;;;9.27;70.93;99052.56;5018167;28;45512;-67
2022/04/08 11:16:50;;;;;;;;;3.00;3.00;;;;;9.29;72.17;99042.59;5017665;28;45273;-70
2022/04/08 11:19:16;;;;;;;;;3.00;3.00;;;;;9.33;70.63;99027.16;5017271;28;45477;-70
2022/04/08 11:21:42;;;;;;;;;7.00;5.33;;;;;9.74;69.54;99054.16;5013975;28;45508;-70
2022/04/08 11:24:18;;;;;;;;;5.00;5.00;;;;;9.99;70.35;99047.59;5018065;28;45395;-66
2022/04/08 11:26:48;;;;;;;;;5.67;5.67;;;;;10.12;68.82;99054.97;5018345;28;45607;-69
2022/04/08 11:29:24;;;;;;;;;6.67;4.67;;;;;10.20;68.61;99022.16;5016064;28;45493;-68
2022/04/08 11:31:52;;;;;;;;;4.00;4.00;;;;;10.03;67.67;99006.44;5016023;28;45637;-67
2022/04/08 11:34:18;;;;;;;;;3.00;3.00;;;;;10.18;65.75;99013.56;5016716;28;45492;-67
2022/04/08 11:36:44;;;;;;;;;5.00;4.67;;;;;10.32;65.97;99028.72;5017820;28;46412;-67
2022/04/08 11:39:20;;;;;;;;;7.33;5.67;;;;;10.28;67.38;99030.09;5016994;28;45549;-69
2022/04/08 11:41:54;;;;;;;;;2.00;2.00;;;;;10.43;67.28;99030.91;5013756;28;45360;-68